Bluff Springs, Illinois
Current Conditions -  °F | °C
As of 1:55 PM on Friday 24 Oct 2014 (Local Time) from KIJX Reporting Station
Clear Clear  
Wind Chill: 21°   Ceiling: Unl
Heat Index: 21°   Visibility: 10mi
Dew Point: 11°   Wind: 8mph
Humidity: 52%   Direction: 220°SW
Pressure: 30.04"   Gusts: NA
Location:  39.99°N, 90.35°W
Report Text: KIJX 241855Z AUTO 22007KT 10SM CLR 21/11 A3004 RMK AO2 T02110108
Loading
Personal Weather Stations






























Interactive Weather Map
Tropical Storm Tracking
New forecast layout! Learn more

10-Day Weather Forecast

Advertisements
Track Severe Weather on mobile